createdAt,value
2018-07-12T00:00:25.531Z,62.12
2018-07-12T00:02:53.521Z,62.19
2018-07-12T00:05:21.569Z,62.21
2018-07-12T00:07:49.627Z,62.55
2018-07-12T00:10:17.657Z,62.24
2018-07-12T00:12:45.668Z,61.98
2018-07-12T00:15:13.692Z,62.23
2018-07-12T00:17:41.938Z,61.99
2018-07-12T00:20:09.963Z,61.88
2018-07-12T00:22:38.062Z,61.69
2018-07-12T00:25:06.104Z,61.93
2018-07-12T00:27:34.128Z,61.81
2018-07-12T00:30:02.162Z,62.26
2018-07-12T00:32:30.170Z,62.28
2018-07-12T00:34:58.199Z,61.72
2018-07-12T00:37:26.191Z,61.52
2018-07-12T00:39:54.233Z,61.19
2018-07-12T00:42:22.301Z,61.58
2018-07-12T00:44:50.418Z,61.67
2018-07-12T00:47:18.404Z,61.17
2018-07-12T00:49:46.404Z,61.28
2018-07-12T00:52:14.464Z,61.26
2018-07-12T00:54:42.719Z,61.37
2018-07-12T00:57:11.413Z,61.40
2018-07-12T00:59:39.557Z,60.94
2018-07-12T01:02:07.580Z,61.20
2018-07-12T01:04:36.124Z,61.43
2018-07-12T01:07:04.519Z,61.72
2018-07-12T01:09:32.535Z,62.06
2018-07-12T01:12:00.564Z,61.84
2018-07-12T01:14:28.550Z,61.75
2018-07-12T01:16:56.854Z,62.00
2018-07-12T01:19:24.869Z,62.31
2018-07-12T01:21:52.987Z,62.51
2018-07-12T01:24:20.996Z,61.71
2018-07-12T01:26:49.016Z,61.71
2018-07-12T01:29:17.022Z,61.83
2018-07-12T01:31:45.054Z,61.71
2018-07-12T01:34:13.033Z,62.17
2018-07-12T01:36:41.063Z,62.30
2018-07-12T01:39:09.071Z,62.33
2018-07-12T01:41:37.098Z,61.92
2018-07-12T01:44:05.104Z,61.80
2018-07-12T01:46:33.122Z,61.97
2018-07-12T01:49:01.167Z,62.28
2018-07-12T01:51:29.190Z,61.80
2018-07-12T01:53:57.193Z,61.61
2018-07-12T01:56:25.220Z,61.65
2018-07-12T01:58:53.225Z,61.86
2018-07-12T02:01:21.268Z,61.69
2018-07-12T02:03:49.286Z,61.73
2018-07-12T02:06:17.299Z,61.49
2018-07-12T02:08:45.307Z,60.80
2018-07-12T02:11:13.339Z,60.84
2018-07-12T02:13:41.348Z,60.68
2018-07-12T02:16:09.364Z,60.77
2018-07-12T02:18:37.355Z,60.79
2018-07-12T02:21:05.381Z,60.93
2018-07-12T02:23:33.374Z,60.54
2018-07-12T02:26:01.390Z,60.85
2018-07-12T02:28:29.488Z,60.55
2018-07-12T02:30:57.854Z,60.42
2018-07-12T02:33:25.999Z,60.25
2018-07-12T02:35:54.018Z,60.37
2018-07-12T02:38:22.051Z,60.11
2018-07-12T02:40:50.091Z,59.89
2018-07-12T02:43:18.163Z,60.38
2018-07-12T02:45:46.171Z,60.80
2018-07-12T02:48:14.241Z,61.07
2018-07-12T02:50:42.265Z,60.97
2018-07-12T02:53:10.283Z,61.20
2018-07-12T02:55:38.561Z,61.50
2018-07-12T02:58:06.588Z,61.57
2018-07-12T03:00:34.589Z,61.91
2018-07-12T03:03:02.655Z,62.34
2018-07-12T03:05:30.675Z,62.04
2018-07-12T03:07:58.742Z,61.84
2018-07-12T03:10:26.740Z,61.64
2018-07-12T03:12:54.764Z,62.28
2018-07-12T03:15:22.791Z,61.73
2018-07-12T03:17:50.835Z,61.49
2018-07-12T03:20:18.828Z,61.91
2018-07-12T03:22:46.861Z,61.93
2018-07-12T03:25:14.880Z,62.01
2018-07-12T03:27:42.915Z,62.22
2018-07-12T03:30:10.910Z,63.17
2018-07-12T03:32:38.949Z,63.41
2018-07-12T03:35:06.959Z,63.66
2018-07-12T03:37:34.991Z,64.21
2018-07-12T03:40:02.979Z,64.17
2018-07-12T03:42:31.000Z,64.61
2018-07-12T03:44:59.339Z,64.91
2018-07-12T03:47:27.357Z,64.84
2018-07-12T03:49:55.351Z,65.86
2018-07-12T03:52:23.389Z,65.58
2018-07-12T03:54:51.657Z,66.12
2018-07-12T03:57:19.688Z,66.46
2018-07-12T03:59:47.693Z,66.55
2018-07-12T04:02:15.826Z,67.08
2018-07-12T04:04:43.833Z,67.08
2018-07-12T04:07:11.867Z,67.07
2018-07-12T04:09:39.883Z,67.31
2018-07-12T04:12:07.922Z,67.51
2018-07-12T04:14:35.946Z,67.62
2018-07-12T04:17:03.975Z,68.13
2018-07-12T04:19:31.980Z,68.14
2018-07-12T04:22:00.026Z,68.04
2018-07-12T04:24:28.048Z,68.33
2018-07-12T04:26:56.245Z,68.70
2018-07-12T04:29:24.254Z,68.79
2018-07-12T04:31:52.313Z,68.71
2018-07-12T04:34:20.340Z,68.70
2018-07-12T04:36:48.405Z,68.81
2018-07-12T04:39:16.428Z,69.01
2018-07-12T04:41:44.472Z,69.23
2018-07-12T04:44:12.503Z,69.38
2018-07-12T04:46:40.499Z,69.74
2018-07-12T04:49:08.549Z,69.64
2018-07-12T04:51:36.570Z,69.62
2018-07-12T04:54:04.610Z,70.20
2018-07-12T04:56:32.602Z,70.23
2018-07-12T04:59:00.645Z,70.04
2018-07-12T05:01:28.663Z,70.13
2018-07-12T05:03:56.717Z,70.82
2018-07-12T05:06:24.748Z,71.08
2018-07-12T05:08:52.785Z,70.86
2018-07-12T05:11:20.844Z,71.48
2018-07-12T05:13:48.899Z,71.53
2018-07-12T05:16:17.010Z,71.84
2018-07-12T05:18:44.975Z,71.68
2018-07-12T05:21:13.007Z,71.70
2018-07-12T05:23:41.032Z,71.67
2018-07-12T05:26:09.051Z,72.09
2018-07-12T05:28:37.183Z,72.25
2018-07-12T05:31:05.421Z,71.94
2018-07-12T05:33:33.451Z,71.69
2018-07-12T05:36:11.571Z,71.64
2018-07-12T05:38:41.691Z,71.26
2018-07-12T05:41:11.755Z,71.34
2018-07-12T05:43:41.826Z,71.57
2018-07-12T05:46:11.851Z,71.38
2018-07-12T05:48:41.934Z,71.19
2018-07-12T05:51:11.997Z,70.95
2018-07-12T05:53:42.104Z,71.88
2018-07-12T05:56:12.175Z,71.87
2018-07-12T05:58:42.269Z,71.37
2018-07-12T06:01:29.028Z,71.03
2018-07-12T06:03:59.134Z,71.33
2018-07-12T06:06:29.215Z,71.03
2018-07-12T06:08:59.332Z,70.33
2018-07-12T06:11:29.398Z,70.69
2018-07-12T06:13:59.455Z,71.12
2018-07-12T06:16:29.543Z,71.05
2018-07-12T06:18:59.716Z,70.96
2018-07-12T06:21:29.807Z,70.73
2018-07-12T06:23:59.926Z,71.82
2018-07-12T06:26:29.978Z,72.10
2018-07-12T06:29:00.072Z,72.12
2018-07-12T06:31:30.155Z,72.32
2018-07-12T06:34:00.233Z,72.27
2018-07-12T06:36:30.299Z,72.43
2018-07-12T06:39:00.419Z,72.67
2018-07-12T06:41:30.523Z,71.96
2018-07-12T06:44:00.633Z,72.20
2018-07-12T06:46:30.732Z,72.07
2018-07-12T06:49:00.844Z,71.53
2018-07-12T06:51:30.886Z,71.69
2018-07-12T06:54:00.964Z,71.51
2018-07-12T06:56:31.009Z,70.92
2018-07-12T06:59:01.169Z,72.16
2018-07-12T07:01:31.207Z,70.86
2018-07-12T07:04:01.321Z,70.73
2018-07-12T07:06:31.403Z,70.41
2018-07-12T07:09:01.482Z,70.77
2018-07-12T07:11:31.570Z,71.29
2018-07-12T07:14:01.705Z,71.95
2018-07-12T07:16:31.790Z,72.08
2018-07-12T07:19:01.893Z,70.97
2018-07-12T07:21:31.982Z,71.71
2018-07-12T07:24:02.151Z,71.24
2018-07-12T07:26:32.215Z,72.11
2018-07-12T07:29:02.369Z,72.55
2018-07-12T07:31:32.478Z,72.56
2018-07-12T07:34:02.556Z,73.80
2018-07-12T07:36:32.202Z,73.89
2018-07-12T07:39:02.286Z,72.57
2018-07-12T07:41:31.930Z,72.55
2018-07-12T07:44:02.043Z,71.92
2018-07-12T07:46:32.106Z,72.99
2018-07-12T07:49:02.265Z,72.57
2018-07-12T07:51:33.209Z,72.43
2018-07-12T07:54:03.320Z,72.45
2018-07-12T07:56:33.403Z,71.11
2018-07-12T07:59:03.587Z,71.14
2018-07-12T08:01:33.717Z,71.41
2018-07-12T08:04:03.739Z,71.64
2018-07-12T08:06:33.852Z,72.03
2018-07-12T08:09:04.513Z,71.99
2018-07-12T08:11:34.612Z,72.54
2018-07-12T08:14:04.283Z,72.41
2018-07-12T08:16:34.380Z,73.45
2018-07-12T08:19:04.492Z,73.52
2018-07-12T08:21:34.592Z,72.75
2018-07-12T08:24:04.683Z,73.32
2018-07-12T08:26:34.768Z,72.80
2018-07-12T08:29:04.845Z,73.63
2018-07-12T08:31:34.963Z,73.28
2018-07-12T08:34:05.037Z,75.14
2018-07-12T08:36:35.122Z,71.49
2018-07-12T08:39:05.888Z,72.10
2018-07-12T08:41:35.995Z,71.23
2018-07-12T08:44:06.190Z,71.44
2018-07-12T08:46:35.922Z,70.11
2018-07-12T08:49:06.039Z,70.03
2018-07-12T08:51:36.119Z,68.63
2018-07-12T08:54:06.221Z,69.12
2018-07-12T08:56:36.361Z,67.17
2018-07-12T08:59:06.456Z,67.11
2018-07-12T09:01:36.676Z,68.03
2018-07-12T09:04:06.807Z,68.12
2018-07-12T09:06:36.955Z,66.23
2018-07-12T09:09:08.306Z,68.12
2018-07-12T09:11:38.450Z,65.87
2018-07-12T09:14:08.467Z,66.79
2018-07-12T09:16:38.593Z,66.72
2018-07-12T09:19:08.657Z,63.43
2018-07-12T09:21:38.784Z,63.98
2018-07-12T09:24:08.835Z,64.04
2018-07-12T09:26:38.948Z,63.44
2018-07-12T09:29:09.046Z,62.33
2018-07-12T09:31:39.155Z,61.79
2018-07-12T09:34:09.264Z,60.71
2018-07-12T09:36:39.402Z,62.62
2018-07-12T09:39:09.468Z,61.86
2018-07-12T09:41:39.595Z,63.19
2018-07-12T09:44:09.753Z,61.91
2018-07-12T09:46:39.839Z,61.25
2018-07-12T09:49:09.938Z,61.35
2018-07-12T09:51:40.026Z,63.87
2018-07-12T09:54:10.119Z,61.75
2018-07-12T09:56:56.739Z,60.27
2018-07-12T09:59:26.797Z,60.16
2018-07-12T10:02:01.980Z,57.11
2018-07-12T10:04:32.025Z,56.67
2018-07-12T10:07:07.126Z,54.11
2018-07-12T10:09:42.241Z,56.53
2018-07-12T10:12:16.284Z,55.29
2018-07-12T10:14:51.409Z,53.48
2018-07-12T10:17:26.507Z,55.15
2018-07-12T10:19:56.690Z,52.77
2018-07-12T10:22:26.707Z,53.28
2018-07-12T10:24:56.763Z,57.08
2018-07-12T10:27:27.115Z,51.92
2018-07-12T10:29:57.198Z,55.36
2018-07-12T10:32:27.450Z,53.72
2018-07-12T10:34:57.072Z,51.52
2018-07-12T10:37:27.303Z,51.56
2018-07-12T10:39:57.327Z,50.96
2018-07-12T10:42:27.423Z,52.26
2018-07-12T10:44:57.595Z,55.52
2018-07-12T10:47:27.703Z,52.16
2018-07-12T10:49:57.779Z,53.23
2018-07-12T10:52:29.698Z,54.60
2018-07-12T10:54:59.840Z,54.15
2018-07-12T10:57:30.036Z,54.26
2018-07-12T11:00:00.174Z,52.87
2018-07-12T11:02:30.547Z,51.28
2018-07-12T11:05:00.234Z,53.51
2018-07-12T11:07:30.569Z,55.85
2018-07-12T11:10:00.687Z,55.82
2018-07-12T11:12:30.900Z,55.67
2018-07-12T11:15:01.021Z,54.57
2018-07-12T11:17:31.288Z,54.08
2018-07-12T11:20:01.085Z,53.79
2018-07-12T11:22:31.251Z,53.72
2018-07-12T11:25:01.397Z,54.58
2018-07-12T11:27:31.652Z,55.52
2018-07-12T11:30:01.767Z,56.04
2018-07-12T11:32:32.018Z,54.96
2018-07-12T11:35:01.715Z,54.95
2018-07-12T11:37:31.930Z,52.76
2018-07-12T11:40:02.056Z,56.93
2018-07-12T11:42:32.262Z,55.01
2018-07-12T11:45:02.367Z,52.06
2018-07-12T11:47:32.820Z,55.45
2018-07-12T11:50:02.985Z,52.96
2018-07-12T11:52:33.214Z,51.04
2018-07-12T11:55:03.305Z,51.81
2018-07-12T11:57:33.546Z,52.52
2018-07-12T12:00:03.759Z,53.92
2018-07-12T12:02:34.024Z,52.53
2018-07-12T12:05:04.191Z,53.28
2018-07-12T12:07:34.758Z,53.34
2018-07-12T12:10:04.874Z,53.25
2018-07-12T12:12:35.073Z,51.59
2018-07-12T12:15:05.247Z,51.19
2018-07-12T12:17:35.446Z,51.46
2018-07-12T12:20:05.595Z,48.43
2018-07-12T12:22:35.793Z,51.22
2018-07-12T12:25:05.949Z,51.83
2018-07-12T12:27:35.819Z,51.40
2018-07-12T12:30:05.898Z,52.06
2018-07-12T12:32:36.130Z,46.03
2018-07-12T12:35:06.308Z,48.03
2018-07-12T12:37:36.496Z,47.28
2018-07-12T12:40:06.753Z,48.75
2018-07-12T12:42:36.991Z,48.03
2018-07-12T12:45:07.120Z,49.60
2018-07-12T12:47:37.456Z,49.17
2018-07-12T12:50:08.034Z,48.37
2018-07-12T12:52:38.131Z,48.52
2018-07-12T12:55:08.803Z,49.13
2018-07-12T12:57:39.409Z,46.48
2018-07-12T13:00:09.659Z,50.16
2018-07-12T13:02:39.831Z,49.63
2018-07-12T13:05:09.923Z,48.32
2018-07-12T13:07:40.172Z,46.18
2018-07-12T13:10:10.783Z,48.02
2018-07-12T13:12:40.937Z,50.40
2018-07-12T13:15:11.006Z,49.80
2018-07-12T13:17:41.167Z,50.17
2018-07-12T13:20:11.367Z,46.89
2018-07-12T13:22:41.559Z,46.82
2018-07-12T13:25:11.616Z,45.80
2018-07-12T13:27:41.814Z,46.12
2018-07-12T13:30:11.927Z,47.73
2018-07-12T13:32:42.076Z,47.17
2018-07-12T13:35:12.122Z,47.27
2018-07-12T13:37:42.213Z,47.95
2018-07-12T13:40:12.291Z,50.12
2018-07-12T13:42:42.393Z,47.86
2018-07-12T13:45:12.472Z,46.32
2018-07-12T13:47:42.562Z,45.42
2018-07-12T13:50:12.662Z,45.22
2018-07-12T13:52:42.726Z,44.98
2018-07-12T13:55:12.806Z,45.77
2018-07-12T13:57:42.975Z,41.58
2018-07-12T14:00:13.078Z,44.38
2018-07-12T14:02:43.175Z,43.38
2018-07-12T14:05:13.237Z,41.05
2018-07-12T14:07:43.014Z,40.44
2018-07-12T14:10:13.083Z,40.29
2018-07-12T14:12:43.140Z,41.59
2018-07-12T14:15:13.256Z,41.68
2018-07-12T14:17:43.420Z,42.00
2018-07-12T14:20:13.618Z,45.69
2018-07-12T14:22:43.695Z,44.67
2018-07-12T14:25:13.734Z,43.30
2018-07-12T14:27:43.757Z,45.66
2018-07-12T14:30:13.943Z,41.76
2018-07-12T14:32:44.019Z,44.27
2018-07-12T14:35:14.137Z,41.38
2018-07-12T14:37:44.218Z,40.94
2018-07-12T14:40:14.391Z,40.27
2018-07-12T14:42:44.522Z,41.54
2018-07-12T14:45:14.719Z,40.33
2018-07-12T14:47:44.758Z,42.36
2018-07-12T14:50:14.959Z,41.08
2018-07-12T14:52:45.091Z,44.28
2018-07-12T14:55:15.201Z,44.72
2018-07-12T14:57:45.188Z,43.73
2018-07-12T15:00:15.301Z,43.97
2018-07-12T15:02:45.574Z,43.67
2018-07-12T15:05:15.676Z,43.79
2018-07-12T15:07:45.345Z,44.28
2018-07-12T15:10:15.561Z,44.02
2018-07-12T15:12:45.607Z,44.17
2018-07-12T15:15:15.737Z,43.81
2018-07-12T15:17:45.812Z,44.34
2018-07-12T15:20:15.973Z,42.54
2018-07-12T15:22:46.031Z,41.39
2018-07-12T15:25:16.177Z,42.91
2018-07-12T15:27:46.236Z,42.42
2018-07-12T15:30:16.310Z,43.13
2018-07-12T15:32:46.371Z,42.34
2018-07-12T15:35:17.386Z,42.35
2018-07-12T15:37:47.433Z,42.51
2018-07-12T15:40:17.655Z,43.12
2018-07-12T15:42:47.776Z,43.28
2018-07-12T15:45:17.955Z,43.68
2018-07-12T15:47:48.309Z,43.56
2018-07-12T15:50:24.859Z,42.37
2018-07-12T15:52:55.175Z,43.01
2018-07-12T15:55:25.319Z,42.55
2018-07-12T15:57:55.359Z,42.21
2018-07-12T16:00:25.495Z,42.38
2018-07-12T16:02:55.775Z,41.05
2018-07-12T16:05:25.912Z,41.56
2018-07-12T16:07:55.958Z,43.10
2018-07-12T16:10:26.080Z,42.18
2018-07-12T16:12:56.172Z,42.44
2018-07-12T16:15:26.277Z,42.00
2018-07-12T16:17:56.343Z,42.49
2018-07-12T16:20:26.567Z,41.72
2018-07-12T16:22:56.624Z,42.76
2018-07-12T16:25:26.728Z,42.41
2018-07-12T16:27:56.875Z,42.30
2018-07-12T16:30:26.971Z,43.79
2018-07-12T16:32:57.055Z,42.74
2018-07-12T16:35:27.156Z,42.93
2018-07-12T16:37:57.349Z,43.30
2018-07-12T16:40:27.483Z,43.18
2018-07-12T16:42:57.579Z,43.91
2018-07-12T16:45:27.738Z,44.11
2018-07-12T16:47:58.306Z,43.57
2018-07-12T16:50:28.429Z,43.60
2018-07-12T16:52:58.497Z,43.12
2018-07-12T16:55:28.611Z,43.54
2018-07-12T16:57:58.731Z,44.75
2018-07-12T17:00:28.785Z,43.04
2018-07-12T17:02:58.882Z,42.86
2018-07-12T17:05:28.874Z,43.49
2018-07-12T17:07:59.040Z,44.07
2018-07-12T17:10:29.129Z,42.52
2018-07-12T17:12:59.237Z,43.52
2018-07-12T17:15:29.266Z,43.97
2018-07-12T17:17:59.377Z,42.69
2018-07-12T17:20:29.495Z,43.27
2018-07-12T17:22:59.604Z,43.19
2018-07-12T17:25:29.634Z,44.15
2018-07-12T17:27:59.691Z,45.21
2018-07-12T17:30:29.740Z,44.52
2018-07-12T17:32:59.856Z,45.17
2018-07-12T17:35:29.852Z,44.25
2018-07-12T17:38:00.761Z,43.44
2018-07-12T17:40:30.887Z,43.53
2018-07-12T17:43:00.912Z,44.39
2018-07-12T17:45:30.944Z,44.14
2018-07-12T17:48:01.062Z,43.99
2018-07-12T17:50:31.147Z,44.52
2018-07-12T17:53:01.282Z,43.21
2018-07-12T17:55:31.380Z,42.65
2018-07-12T17:58:01.483Z,43.45
2018-07-12T18:00:31.579Z,44.74
2018-07-12T18:03:01.856Z,43.26
2018-07-12T18:05:32.063Z,42.61
2018-07-12T18:08:02.161Z,43.27
2018-07-12T18:10:32.281Z,42.83
2018-07-12T18:13:02.393Z,43.73
2018-07-12T18:15:32.487Z,44.01
2018-07-12T18:18:02.615Z,44.15
2018-07-12T18:20:32.710Z,44.66
2018-07-12T18:23:02.788Z,45.11
2018-07-12T18:25:32.838Z,45.55
2018-07-12T18:28:02.935Z,45.98
2018-07-12T18:30:33.017Z,46.21
2018-07-12T18:33:03.456Z,46.20
2018-07-12T18:35:33.509Z,47.00
2018-07-12T18:38:03.657Z,46.52
2018-07-12T18:40:33.711Z,46.99
2018-07-12T18:43:03.835Z,47.29
2018-07-12T18:45:33.945Z,47.17
2018-07-12T18:48:04.489Z,47.93
2018-07-12T18:50:34.613Z,47.49
2018-07-12T18:53:05.063Z,48.12
2018-07-12T18:55:35.856Z,48.29
2018-07-12T18:58:05.980Z,49.03
2018-07-12T19:00:36.744Z,49.56
2018-07-12T19:03:07.057Z,49.73
2018-07-12T19:05:37.160Z,49.90
2018-07-12T19:08:07.368Z,49.53
2018-07-12T19:10:37.456Z,49.95
2018-07-12T19:13:07.637Z,50.36
2018-07-12T19:15:37.730Z,51.47
2018-07-12T19:18:07.851Z,52.50
2018-07-12T19:20:38.008Z,52.44
2018-07-12T19:23:08.619Z,53.25
2018-07-12T19:25:38.833Z,54.26
2018-07-12T19:28:09.308Z,54.29
2018-07-12T19:30:39.947Z,54.33
2018-07-12T19:33:09.995Z,54.90
2018-07-12T19:35:40.122Z,56.34
2018-07-12T19:38:10.355Z,56.25
2018-07-12T19:40:40.392Z,56.29
2018-07-12T19:43:11.151Z,57.04
2018-07-12T19:45:41.458Z,56.84
2018-07-12T19:48:11.809Z,57.45
2018-07-12T19:50:41.927Z,58.08
2018-07-12T19:53:12.073Z,58.13
2018-07-12T19:55:42.140Z,58.44
2018-07-12T19:58:12.166Z,59.04
2018-07-12T20:00:42.247Z,58.79
2018-07-12T20:03:12.315Z,59.01
2018-07-12T20:05:42.374Z,59.56
2018-07-12T20:08:12.568Z,59.42
2018-07-12T20:10:42.619Z,60.07
2018-07-12T20:13:12.641Z,60.71
2018-07-12T20:15:42.659Z,60.91
2018-07-12T20:18:12.702Z,61.53
2018-07-12T20:20:42.843Z,61.74
2018-07-12T20:23:13.376Z,61.37
2018-07-12T20:25:43.917Z,61.29
2018-07-12T20:28:14.133Z,62.17
2018-07-12T20:30:44.225Z,62.12
2018-07-12T20:33:14.323Z,62.76
2018-07-12T20:35:44.381Z,63.23
2018-07-12T20:38:14.371Z,63.32
2018-07-12T20:40:44.440Z,63.84
2018-07-12T20:43:21.285Z,63.35
2018-07-12T20:45:51.347Z,63.52
2018-07-12T20:48:21.343Z,63.90
2018-07-12T20:50:51.397Z,64.43
2018-07-12T20:53:21.397Z,65.01
2018-07-12T20:55:51.836Z,65.17
2018-07-12T20:58:21.853Z,65.19
2018-07-12T21:00:52.001Z,65.52
2018-07-12T21:03:22.047Z,65.06
2018-07-12T21:05:52.695Z,65.27
2018-07-12T21:08:22.813Z,65.01
2018-07-12T21:10:52.846Z,65.42
2018-07-12T21:13:22.869Z,65.50
2018-07-12T21:15:53.033Z,66.11
2018-07-12T21:18:23.041Z,66.05
2018-07-12T21:20:53.070Z,66.37
2018-07-12T21:23:23.075Z,66.39
2018-07-12T21:25:53.079Z,66.27
2018-07-12T21:28:23.102Z,66.38
2018-07-12T21:30:53.118Z,66.07
2018-07-12T21:33:23.158Z,66.60
2018-07-12T21:35:53.141Z,66.30
2018-07-12T21:38:23.171Z,66.22
2018-07-12T21:40:53.198Z,66.24
2018-07-12T21:43:23.203Z,66.38
2018-07-12T21:45:53.259Z,66.80
2018-07-12T21:48:23.278Z,66.66
2018-07-12T21:50:53.297Z,67.57
2018-07-12T21:53:23.264Z,67.00
2018-07-12T21:55:53.300Z,67.11
2018-07-12T21:58:23.409Z,66.91
2018-07-12T22:00:53.447Z,67.47
2018-07-12T22:03:23.543Z,67.18
2018-07-12T22:05:53.554Z,67.58
2018-07-12T22:08:26.137Z,68.17
2018-07-12T22:10:57.593Z,68.05
2018-07-12T22:13:28.399Z,68.52
2018-07-12T22:17:01.333Z,68.80
2018-07-12T22:19:31.324Z,68.84
2018-07-12T22:22:01.382Z,68.68
2018-07-12T22:24:31.373Z,68.84
2018-07-12T22:27:01.411Z,68.65
2018-07-12T22:29:31.413Z,69.21
2018-07-12T22:32:01.460Z,69.78
2018-07-12T22:34:31.533Z,69.28
2018-07-12T22:37:01.568Z,69.06
2018-07-12T22:39:31.567Z,69.32
2018-07-12T22:42:01.592Z,69.54
2018-07-12T22:44:31.601Z,69.84
2018-07-12T22:47:01.640Z,69.70
2018-07-12T22:49:31.641Z,69.98
2018-07-12T22:52:01.659Z,70.51
2018-07-12T22:54:31.671Z,70.22
2018-07-12T22:57:01.684Z,70.55
2018-07-12T22:59:31.663Z,70.58
2018-07-12T23:02:08.279Z,70.95
2018-07-12T23:04:38.580Z,70.81
2018-07-12T23:07:09.120Z,70.68
2018-07-12T23:09:39.459Z,70.79
2018-07-12T23:12:09.965Z,71.00
2018-07-12T23:14:40.320Z,70.96
2018-07-12T23:17:10.374Z,71.22
2018-07-12T23:19:40.016Z,71.22
2018-07-12T23:22:10.103Z,71.11
2018-07-12T23:24:40.279Z,71.61
2018-07-12T23:27:10.298Z,72.03
2018-07-12T23:29:40.327Z,71.95
2018-07-12T23:32:10.381Z,72.11
2018-07-12T23:34:40.452Z,72.49
2018-07-12T23:37:10.500Z,72.69
2018-07-12T23:39:40.531Z,73.25
2018-07-12T23:42:10.597Z,73.46
2018-07-12T23:44:40.667Z,73.65
2018-07-12T23:47:10.721Z,73.21
2018-07-12T23:49:40.736Z,72.92
2018-07-12T23:52:10.797Z,73.29
2018-07-12T23:54:40.807Z,73.40
2018-07-12T23:57:10.839Z,73.15
2018-07-12T23:59:40.873Z,73.23
